createdAt,value
2023-04-17T00:00:26.971Z,9.65
2023-04-17T00:02:53.542Z,9.77
2023-04-17T00:05:23.319Z,9.70
2023-04-17T00:07:49.964Z,9.58
2023-04-17T00:10:16.651Z,9.61
2023-04-17T00:12:43.171Z,9.70
2023-04-17T00:15:10.053Z,9.62
2023-04-17T00:17:36.572Z,9.63
2023-04-17T00:20:07.854Z,9.56
2023-04-17T00:22:34.256Z,9.56
2023-04-17T00:25:00.698Z,9.70
2023-04-17T00:27:27.090Z,9.63
2023-04-17T00:29:53.471Z,9.72
2023-04-17T00:32:19.862Z,9.55
2023-04-17T00:34:46.378Z,9.66
2023-04-17T00:37:12.943Z,9.70
2023-04-17T00:39:39.392Z,9.73
2023-04-17T00:42:06.053Z,9.62
2023-04-17T00:44:32.721Z,9.64
2023-04-17T00:47:02.616Z,9.57
2023-04-17T00:49:32.381Z,9.60
2023-04-17T00:52:01.477Z,9.51
2023-04-17T00:54:28.072Z,9.53
2023-04-17T00:56:56.740Z,9.50
2023-04-17T00:59:24.701Z,9.39
2023-04-17T01:01:51.183Z,9.45
2023-04-17T01:04:17.745Z,9.31
2023-04-17T01:06:44.595Z,9.45
2023-04-17T01:09:11.455Z,9.32
2023-04-17T01:11:39.236Z,9.39
2023-04-17T01:14:07.874Z,9.42
2023-04-17T01:16:39.046Z,9.38
2023-04-17T01:19:08.418Z,9.36
2023-04-17T01:21:34.812Z,9.32
2023-04-17T01:24:03.340Z,9.47
2023-04-17T01:26:34.013Z,9.42
2023-04-17T01:29:04.132Z,9.33
2023-04-17T01:31:31.345Z,9.28
2023-04-17T01:34:00.411Z,9.29
2023-04-17T01:36:27.645Z,9.22
2023-04-17T01:38:54.040Z,9.29
2023-04-17T01:41:20.562Z,9.28
2023-04-17T01:43:47.629Z,9.40
2023-04-17T01:46:16.271Z,9.43
2023-04-17T01:48:42.770Z,9.46
2023-04-17T01:51:09.148Z,9.34
2023-04-17T01:53:36.276Z,9.39
2023-04-17T01:56:02.734Z,9.41
2023-04-17T01:58:29.912Z,9.37
2023-04-17T02:00:56.645Z,9.32
2023-04-17T02:03:24.568Z,9.31
2023-04-17T02:05:53.103Z,9.35
2023-04-17T02:08:19.565Z,9.35
2023-04-17T02:10:46.227Z,9.34
2023-04-17T02:13:12.656Z,9.41
2023-04-17T02:15:39.302Z,9.32
2023-04-17T02:18:11.232Z,9.28
2023-04-17T02:20:38.262Z,9.28
2023-04-17T02:23:06.357Z,9.22
2023-04-17T02:25:33.484Z,9.23
2023-04-17T02:28:00.726Z,9.30
2023-04-17T02:30:27.858Z,9.31
2023-04-17T02:32:55.145Z,9.34
2023-04-17T02:35:23.549Z,9.33
2023-04-17T02:37:50.253Z,9.34
2023-04-17T02:40:19.207Z,9.31
2023-04-17T02:42:45.758Z,9.35
2023-04-17T02:45:12.204Z,9.30
2023-04-17T02:47:41.413Z,9.37
2023-04-17T02:50:09.047Z,9.27
2023-04-17T02:52:35.500Z,9.28
2023-04-17T02:55:02.123Z,9.27
2023-04-17T02:57:28.640Z,9.09
2023-04-17T02:59:55.311Z,9.17
2023-04-17T03:02:22.356Z,9.20
2023-04-17T03:04:50.441Z,9.14
2023-04-17T03:07:23.443Z,9.15
2023-04-17T03:09:53.956Z,9.17
2023-04-17T03:12:23.513Z,9.15
2023-04-17T03:14:52.137Z,9.20
2023-04-17T03:17:20.421Z,9.19
2023-04-17T03:19:47.098Z,9.03
2023-04-17T03:22:13.638Z,9.12
2023-04-17T03:24:41.200Z,9.12
2023-04-17T03:27:07.647Z,9.11
2023-04-17T03:29:34.096Z,9.06
2023-04-17T03:32:00.821Z,9.07
2023-04-17T03:34:29.000Z,9.07
2023-04-17T03:36:55.866Z,9.07
2023-04-17T03:39:22.351Z,9.06
2023-04-17T03:41:50.897Z,9.04
2023-04-17T03:44:18.618Z,9.12
2023-04-17T03:46:45.216Z,9.07
2023-04-17T03:49:11.910Z,9.02
2023-04-17T03:51:38.529Z,9.02
2023-04-17T03:54:05.029Z,9.00
2023-04-17T03:56:34.225Z,8.96
2023-04-17T03:59:00.660Z,8.93
2023-04-17T04:01:29.891Z,9.07
2023-04-17T04:03:56.640Z,8.96
2023-04-17T04:06:23.281Z,9.00
2023-04-17T04:08:52.287Z,9.04
2023-04-17T04:11:18.723Z,8.93
2023-04-17T04:13:49.971Z,8.91
2023-04-17T04:16:16.642Z,9.03
2023-04-17T04:18:45.601Z,8.96
2023-04-17T04:21:12.432Z,8.91
2023-04-17T04:23:45.527Z,8.83
2023-04-17T04:26:12.022Z,8.96
2023-04-17T04:28:38.452Z,8.88
2023-04-17T04:31:05.440Z,8.86
2023-04-17T04:33:31.831Z,8.95
2023-04-17T04:36:01.269Z,8.87
2023-04-17T04:38:32.513Z,8.82
2023-04-17T04:41:06.115Z,8.84
2023-04-17T04:43:33.564Z,8.87
2023-04-17T04:46:02.570Z,8.80
2023-04-17T04:48:29.104Z,8.80
2023-04-17T04:50:56.291Z,8.82
2023-04-17T04:53:22.910Z,8.82
2023-04-17T04:55:49.333Z,8.89
2023-04-17T04:58:16.308Z,8.91
2023-04-17T05:00:43.575Z,8.86
2023-04-17T05:03:10.756Z,8.90
2023-04-17T05:05:38.159Z,8.91
2023-04-17T05:08:04.895Z,8.88
2023-04-17T05:10:31.347Z,8.78
2023-04-17T05:12:58.049Z,8.88
2023-04-17T05:15:24.495Z,8.74
2023-04-17T05:17:50.982Z,8.87
2023-04-17T05:20:20.040Z,8.85
2023-04-17T05:22:46.713Z,8.89
2023-04-17T05:25:13.116Z,8.86
2023-04-17T05:27:42.046Z,8.77
2023-04-17T05:30:09.188Z,8.98
2023-04-17T05:32:35.759Z,9.01
2023-04-17T05:35:02.236Z,9.00
2023-04-17T05:37:33.225Z,9.05
2023-04-17T05:40:01.229Z,9.10
2023-04-17T05:42:27.634Z,9.07
2023-04-17T05:44:54.070Z,9.12
2023-04-17T05:47:25.422Z,9.12
2023-04-17T05:50:00.231Z,9.24
2023-04-17T05:52:26.764Z,9.19
2023-04-17T05:54:53.196Z,9.22
2023-04-17T05:57:20.045Z,9.24
2023-04-17T05:59:47.150Z,9.30
2023-04-17T06:02:16.320Z,9.35
2023-04-17T06:04:48.710Z,9.35
2023-04-17T06:07:15.266Z,9.36
2023-04-17T06:09:41.657Z,9.37
2023-04-17T06:12:14.773Z,9.33
2023-04-17T06:14:41.480Z,9.48
2023-04-17T06:17:07.942Z,9.68
2023-04-17T06:19:34.365Z,9.68
2023-04-17T06:22:03.032Z,9.82
2023-04-17T06:24:29.466Z,9.84
2023-04-17T06:26:56.596Z,9.94
2023-04-17T06:29:24.037Z,9.98
2023-04-17T06:31:52.936Z,9.91
2023-04-17T06:34:19.417Z,9.92
2023-04-17T06:36:48.227Z,10.07
2023-04-17T06:39:14.671Z,10.20
2023-04-17T06:41:41.124Z,10.30
2023-04-17T06:44:10.672Z,10.63
2023-04-17T06:46:37.268Z,10.84
2023-04-17T06:49:03.848Z,10.61
2023-04-17T06:51:30.331Z,10.66
2023-04-17T06:53:56.754Z,10.66
2023-04-17T06:56:24.230Z,10.69
2023-04-17T06:58:57.876Z,10.89
2023-04-17T07:01:24.302Z,10.94
2023-04-17T07:03:53.205Z,10.80
2023-04-17T07:06:19.600Z,10.67
2023-04-17T07:08:46.046Z,10.76
2023-04-17T07:11:12.576Z,10.99
2023-04-17T07:13:39.159Z,11.12
2023-04-17T07:16:06.390Z,11.03
2023-04-17T07:18:33.060Z,10.84
2023-04-17T07:20:59.545Z,11.09
2023-04-17T07:23:26.064Z,10.99
2023-04-17T07:25:52.866Z,10.93
2023-04-17T07:28:19.727Z,11.01
2023-04-17T07:30:51.147Z,11.05
2023-04-17T07:33:19.886Z,11.02
2023-04-17T07:35:46.291Z,11.14
2023-04-17T07:38:14.915Z,11.33
2023-04-17T07:40:43.624Z,11.57
2023-04-17T07:43:10.240Z,11.28
2023-04-17T07:45:38.534Z,11.29
2023-04-17T07:48:06.347Z,11.24
2023-04-17T07:50:32.799Z,11.37
2023-04-17T07:52:59.225Z,11.44
2023-04-17T07:55:25.659Z,11.46
2023-04-17T07:57:57.037Z,11.82
2023-04-17T08:00:23.593Z,11.74
2023-04-17T08:02:50.435Z,12.07
2023-04-17T08:05:17.090Z,11.95
2023-04-17T08:07:43.580Z,12.06
2023-04-17T08:10:10.553Z,11.88
2023-04-17T08:12:39.748Z,12.22
2023-04-17T08:15:06.689Z,12.39
2023-04-17T08:17:33.694Z,12.25
2023-04-17T08:20:02.076Z,12.37
2023-04-17T08:22:28.744Z,12.86
2023-04-17T08:24:57.864Z,12.66
2023-04-17T08:27:25.581Z,12.58
2023-04-17T08:29:55.045Z,12.81
2023-04-17T08:32:21.892Z,12.75
2023-04-17T08:34:50.626Z,13.36
2023-04-17T08:37:16.999Z,13.38
2023-04-17T08:39:43.556Z,13.42
2023-04-17T08:42:16.539Z,13.30
2023-04-17T08:44:44.884Z,13.19
2023-04-17T08:47:13.118Z,12.92
2023-04-17T08:49:43.299Z,13.48
2023-04-17T08:52:09.903Z,13.23
2023-04-17T08:54:37.941Z,13.23
2023-04-17T08:57:05.777Z,13.25
2023-04-17T08:59:35.348Z,13.03
2023-04-17T09:02:06.890Z,13.00
2023-04-17T09:04:40.674Z,12.83
2023-04-17T09:07:09.590Z,12.92
2023-04-17T09:09:47.799Z,12.76
2023-04-17T09:12:14.350Z,12.66
2023-04-17T09:14:41.135Z,12.65
2023-04-17T09:17:07.695Z,12.62
2023-04-17T09:19:35.213Z,12.66
2023-04-17T09:22:21.788Z,12.71
2023-04-17T09:24:48.662Z,12.79
2023-04-17T09:27:26.263Z,12.85
2023-04-17T09:30:04.843Z,12.66
2023-04-17T09:32:33.221Z,12.64
2023-04-17T09:35:02.416Z,12.71
2023-04-17T09:37:50.504Z,12.77
2023-04-17T09:40:21.428Z,12.62
2023-04-17T09:42:54.086Z,12.64
2023-04-17T09:45:22.189Z,12.94
2023-04-17T09:47:48.842Z,12.94
2023-04-17T09:50:22.021Z,12.88
2023-04-17T09:52:54.049Z,12.75
2023-04-17T09:55:22.218Z,12.85
2023-04-17T09:57:50.835Z,12.68
2023-04-17T10:00:22.004Z,12.71
2023-04-17T10:02:53.250Z,12.63
2023-04-17T10:05:21.240Z,12.48
2023-04-17T10:07:47.716Z,12.33
2023-04-17T10:10:26.702Z,12.29
2023-04-17T10:12:56.123Z,12.32
2023-04-17T10:15:29.042Z,12.13
2023-04-17T10:18:18.914Z,12.08
2023-04-17T10:20:49.987Z,12.07
2023-04-17T10:23:31.126Z,11.96
2023-04-17T10:26:25.775Z,12.01
2023-04-17T10:28:57.617Z,11.97
2023-04-17T10:32:02.499Z,12.13
2023-04-17T10:34:36.822Z,12.08
2023-04-17T10:37:05.518Z,12.09
2023-04-17T10:40:00.517Z,12.02
2023-04-17T10:42:30.202Z,12.08
2023-04-17T10:45:05.859Z,12.12
2023-04-17T10:47:34.668Z,12.10
2023-04-17T10:50:07.561Z,12.19
2023-04-17T10:52:40.580Z,12.43
2023-04-17T10:55:16.224Z,12.45
2023-04-17T10:57:58.775Z,12.68
2023-04-17T11:00:31.592Z,12.77
2023-04-17T11:02:59.848Z,12.83
2023-04-17T11:05:26.613Z,12.94
2023-04-17T11:07:53.290Z,12.69
2023-04-17T11:10:20.983Z,12.84
2023-04-17T11:12:48.452Z,12.97
2023-04-17T11:15:16.249Z,13.35
2023-04-17T11:17:49.746Z,13.30
2023-04-17T11:20:23.349Z,13.28
2023-04-17T11:22:50.568Z,13.48
2023-04-17T11:25:25.719Z,13.41
2023-04-17T11:27:57.397Z,13.48
2023-04-17T11:30:33.876Z,13.47
2023-04-17T11:33:05.184Z,13.89
2023-04-17T11:35:33.950Z,13.54
2023-04-17T11:38:21.721Z,13.79
2023-04-17T11:40:53.538Z,13.89
2023-04-17T11:43:21.325Z,13.36
2023-04-17T11:45:51.429Z,13.38
2023-04-17T11:48:24.539Z,13.39
2023-04-17T11:50:58.410Z,13.11
2023-04-17T11:53:25.378Z,12.99
2023-04-17T11:56:11.359Z,13.22
2023-04-17T11:58:45.701Z,13.08
2023-04-17T12:01:13.424Z,13.02
2023-04-17T12:03:40.724Z,13.17
2023-04-17T12:06:13.136Z,12.99
2023-04-17T12:08:53.310Z,13.06
2023-04-17T12:11:24.791Z,13.00
2023-04-17T12:13:55.914Z,12.98
2023-04-17T12:16:26.717Z,12.93
2023-04-17T12:18:56.716Z,12.97
2023-04-17T12:21:26.757Z,12.97
2023-04-17T12:23:56.061Z,13.16
2023-04-17T12:26:22.521Z,13.06
2023-04-17T12:28:49.069Z,13.31
2023-04-17T12:31:15.521Z,13.51
2023-04-17T12:33:42.181Z,13.75
2023-04-17T12:36:09.028Z,13.86
2023-04-17T12:38:36.048Z,14.17
2023-04-17T12:41:02.529Z,13.88
2023-04-17T12:43:28.937Z,13.65
2023-04-17T12:45:55.470Z,14.05
2023-04-17T12:48:25.013Z,13.71
2023-04-17T12:50:51.431Z,14.02
2023-04-17T12:53:17.906Z,13.73
2023-04-17T12:55:44.543Z,13.51
2023-04-17T12:58:12.627Z,13.49
2023-04-17T13:00:41.055Z,13.61
2023-04-17T13:03:07.840Z,13.77
2023-04-17T13:05:34.848Z,13.74
2023-04-17T13:08:04.081Z,13.90
2023-04-17T13:10:30.606Z,13.94
2023-04-17T13:12:57.176Z,13.61
2023-04-17T13:15:23.668Z,13.49
2023-04-17T13:17:50.060Z,13.82
2023-04-17T13:20:16.554Z,14.00
2023-04-17T13:22:42.901Z,13.84
2023-04-17T13:25:12.070Z,13.82
2023-04-17T13:27:38.610Z,13.92
2023-04-17T13:30:08.090Z,13.77
2023-04-17T13:32:35.026Z,13.72
2023-04-17T13:35:05.283Z,13.84
2023-04-17T13:37:32.023Z,14.13
2023-04-17T13:39:59.686Z,13.61
2023-04-17T13:42:26.740Z,13.73
2023-04-17T13:44:53.159Z,13.49
2023-04-17T13:47:19.703Z,13.47
2023-04-17T13:49:48.663Z,13.30
2023-04-17T13:52:15.195Z,13.30
2023-04-17T13:54:42.013Z,13.23
2023-04-17T13:57:09.571Z,13.27
2023-04-17T13:59:36.157Z,13.03
2023-04-17T14:02:07.398Z,12.97
2023-04-17T14:04:34.045Z,13.09
2023-04-17T14:07:00.717Z,12.92
2023-04-17T14:09:27.388Z,13.01
2023-04-17T14:11:57.982Z,12.99
2023-04-17T14:14:24.706Z,13.02
2023-04-17T14:16:53.760Z,13.19
2023-04-17T14:19:20.481Z,13.24
2023-04-17T14:21:47.100Z,13.03
2023-04-17T14:24:13.687Z,13.09
2023-04-17T14:26:41.917Z,13.04
2023-04-17T14:29:10.534Z,13.16
2023-04-17T14:31:37.438Z,13.00
2023-04-17T14:34:03.912Z,12.90
2023-04-17T14:36:31.097Z,12.93
2023-04-17T14:38:58.556Z,12.89
2023-04-17T14:41:29.837Z,12.78
2023-04-17T14:43:56.498Z,12.82
2023-04-17T14:46:23.167Z,12.80
2023-04-17T14:48:55.246Z,12.67
2023-04-17T14:51:23.983Z,12.66
2023-04-17T14:53:53.028Z,12.74
2023-04-17T14:56:22.977Z,12.78
2023-04-17T14:58:49.528Z,12.82
2023-04-17T15:01:16.107Z,12.94
2023-04-17T15:03:47.812Z,12.78
2023-04-17T15:06:15.929Z,12.74
2023-04-17T15:08:46.255Z,12.79
2023-04-17T15:11:12.992Z,12.93
2023-04-17T15:13:40.464Z,12.86
2023-04-17T15:16:09.141Z,12.79
2023-04-17T15:18:39.326Z,12.79
2023-04-17T15:21:06.238Z,12.69
2023-04-17T15:23:35.626Z,12.50
2023-04-17T15:26:02.239Z,12.68
2023-04-17T15:28:29.001Z,12.71
2023-04-17T15:30:58.425Z,12.88
2023-04-17T15:33:27.317Z,12.86
2023-04-17T15:35:56.173Z,12.98
2023-04-17T15:38:25.776Z,13.10
2023-04-17T15:40:52.447Z,13.00
2023-04-17T15:43:21.988Z,12.96
2023-04-17T15:45:49.226Z,13.07
2023-04-17T15:48:15.870Z,12.92
2023-04-17T15:50:42.404Z,12.90
2023-04-17T15:53:09.814Z,12.79
2023-04-17T15:55:38.652Z,12.85
2023-04-17T15:58:06.246Z,12.81
2023-04-17T16:00:34.123Z,12.71
2023-04-17T16:03:00.932Z,12.67
2023-04-17T16:05:31.981Z,12.74
2023-04-17T16:08:02.777Z,12.61
2023-04-17T16:10:29.319Z,12.48
2023-04-17T16:12:55.932Z,12.44
2023-04-17T16:15:22.812Z,12.51
2023-04-17T16:17:52.102Z,12.61
2023-04-17T16:20:20.989Z,12.61
2023-04-17T16:22:47.484Z,12.49
2023-04-17T16:25:14.042Z,12.50
2023-04-17T16:27:41.150Z,12.52
2023-04-17T16:30:08.898Z,12.63
2023-04-17T16:32:35.540Z,12.61
2023-04-17T16:35:02.038Z,12.48
2023-04-17T16:37:30.913Z,12.49
2023-04-17T16:39:57.482Z,12.44
2023-04-17T16:42:26.492Z,12.47
2023-04-17T16:44:56.004Z,12.39
2023-04-17T16:47:22.567Z,12.57
2023-04-17T16:49:49.074Z,12.55
2023-04-17T16:52:15.992Z,12.43
2023-04-17T16:54:42.449Z,12.37
2023-04-17T16:57:09.193Z,12.26
2023-04-17T16:59:35.846Z,12.27
2023-04-17T17:02:02.716Z,12.30
2023-04-17T17:04:29.806Z,12.21
2023-04-17T17:06:56.626Z,12.25
2023-04-17T17:09:23.102Z,12.13
2023-04-17T17:11:52.254Z,12.05
2023-04-17T17:14:18.861Z,12.06
2023-04-17T17:16:45.398Z,12.10
2023-04-17T17:19:11.944Z,12.05
2023-04-17T17:21:38.569Z,12.08
2023-04-17T17:24:07.693Z,11.90
2023-04-17T17:26:34.177Z,11.89
2023-04-17T17:29:07.892Z,11.91
2023-04-17T17:31:34.583Z,11.91
2023-04-17T17:34:11.930Z,11.86
2023-04-17T17:36:49.917Z,11.83
2023-04-17T17:39:16.570Z,11.84
2023-04-17T17:41:45.117Z,11.76
2023-04-17T17:44:13.226Z,11.73
2023-04-17T17:46:39.853Z,11.81
2023-04-17T17:49:06.239Z,11.70
2023-04-17T17:51:32.670Z,11.62
2023-04-17T17:53:59.160Z,11.55
2023-04-17T17:56:25.553Z,11.64
2023-04-17T17:58:52.128Z,11.66
2023-04-17T18:01:18.659Z,11.69
2023-04-17T18:03:47.381Z,11.66
2023-04-17T18:06:16.026Z,11.55
2023-04-17T18:08:42.411Z,11.57
2023-04-17T18:11:13.066Z,11.50
2023-04-17T18:13:39.473Z,11.54
2023-04-17T18:16:10.728Z,11.48
2023-04-17T18:18:37.212Z,11.48
2023-04-17T18:21:11.216Z,11.40
2023-04-17T18:23:37.654Z,11.42
2023-04-17T18:26:04.357Z,11.34
2023-04-17T18:28:33.118Z,11.37
2023-04-17T18:30:59.742Z,11.34
2023-04-17T18:33:26.177Z,11.36
2023-04-17T18:35:52.603Z,11.36
2023-04-17T18:38:19.058Z,11.25
2023-04-17T18:40:45.506Z,11.34
2023-04-17T18:43:12.044Z,11.20
2023-04-17T18:45:41.541Z,11.28
2023-04-17T18:48:11.116Z,11.22
2023-04-17T18:50:38.729Z,11.33
2023-04-17T18:53:05.212Z,11.30
2023-04-17T18:55:32.377Z,11.32
2023-04-17T18:57:58.831Z,11.38
2023-04-17T19:00:25.367Z,11.27
2023-04-17T19:02:51.985Z,11.30
2023-04-17T19:05:20.510Z,11.25
2023-04-17T19:07:51.104Z,11.20
2023-04-17T19:10:17.718Z,11.26
2023-04-17T19:12:44.472Z,11.27
2023-04-17T19:15:11.267Z,11.16
2023-04-17T19:17:38.676Z,11.10
2023-04-17T19:20:06.290Z,11.10
2023-04-17T19:22:32.681Z,11.12
2023-04-17T19:25:01.539Z,11.14
2023-04-17T19:27:28.128Z,11.12
2023-04-17T19:29:54.656Z,11.12
2023-04-17T19:32:21.542Z,11.13
2023-04-17T19:34:48.107Z,11.03
2023-04-17T19:37:14.460Z,11.08
2023-04-17T19:39:40.956Z,11.03
2023-04-17T19:42:09.971Z,11.02
2023-04-17T19:44:36.327Z,10.99
2023-04-17T19:47:02.824Z,11.04
2023-04-17T19:49:31.757Z,11.01
2023-04-17T19:51:59.160Z,10.98
2023-04-17T19:54:25.541Z,10.97
2023-04-17T19:56:52.226Z,10.84
2023-04-17T19:59:18.674Z,10.87
2023-04-17T20:01:45.596Z,10.85
2023-04-17T20:04:12.256Z,10.84
2023-04-17T20:06:39.769Z,10.78
2023-04-17T20:09:06.591Z,10.77
2023-04-17T20:11:33.043Z,10.80
2023-04-17T20:13:59.471Z,10.81
2023-04-17T20:16:26.045Z,10.68
2023-04-17T20:18:52.649Z,10.77
2023-04-17T20:21:21.787Z,10.83
2023-04-17T20:23:48.956Z,10.77
2023-04-17T20:26:18.280Z,10.80
2023-04-17T20:28:44.774Z,10.75
2023-04-17T20:31:15.820Z,10.77
2023-04-17T20:33:42.294Z,10.77
2023-04-17T20:36:11.912Z,10.76
2023-04-17T20:38:40.795Z,10.74
2023-04-17T20:41:07.224Z,10.73
2023-04-17T20:43:33.650Z,10.72
2023-04-17T20:46:00.175Z,10.73
2023-04-17T20:48:29.119Z,10.75
2023-04-17T20:50:55.538Z,10.74
2023-04-17T20:53:24.265Z,10.66
2023-04-17T20:55:50.736Z,10.63
2023-04-17T20:58:17.228Z,10.67
2023-04-17T21:01:00.132Z,10.59
2023-04-17T21:03:32.562Z,10.69
2023-04-17T21:05:59.921Z,10.69
2023-04-17T21:08:26.677Z,10.65
2023-04-17T21:10:55.625Z,10.63
2023-04-17T21:13:22.821Z,10.59
2023-04-17T21:15:51.600Z,10.45
2023-04-17T21:18:18.158Z,10.40
2023-04-17T21:20:44.545Z,10.39
2023-04-17T21:23:13.989Z,10.34
2023-04-17T21:25:40.599Z,10.19
2023-04-17T21:28:07.159Z,10.24
2023-04-17T21:30:33.557Z,10.31
2023-04-17T21:33:00.081Z,10.23
2023-04-17T21:35:27.091Z,10.19
2023-04-17T21:37:53.458Z,10.24
2023-04-17T21:40:22.406Z,10.28
2023-04-17T21:42:48.816Z,10.23
2023-04-17T21:45:17.887Z,10.29
2023-04-17T21:47:44.484Z,10.32
2023-04-17T21:50:11.145Z,10.29
2023-04-17T21:52:37.946Z,10.29
2023-04-17T21:55:07.486Z,10.38
2023-04-17T21:57:39.031Z,10.37
2023-04-17T22:00:06.363Z,10.35
2023-04-17T22:02:32.971Z,10.26
2023-04-17T22:04:59.596Z,10.27
2023-04-17T22:07:28.750Z,10.32
2023-04-17T22:09:56.166Z,10.24
2023-04-17T22:12:25.249Z,10.21
2023-04-17T22:14:51.705Z,10.15
2023-04-17T22:17:18.258Z,10.18
2023-04-17T22:19:46.964Z,10.22
2023-04-17T22:22:18.261Z,10.21
2023-04-17T22:24:44.678Z,10.22
2023-04-17T22:27:11.140Z,10.26
2023-04-17T22:29:37.553Z,10.24
2023-04-17T22:32:04.309Z,10.20
2023-04-17T22:34:30.794Z,10.12
2023-04-17T22:36:57.214Z,10.19
2023-04-17T22:39:23.725Z,10.18
2023-04-17T22:41:50.099Z,10.14
2023-04-17T22:44:19.572Z,10.10
2023-04-17T22:46:46.001Z,10.16
2023-04-17T22:49:14.166Z,10.20
2023-04-17T22:51:41.113Z,10.14
2023-04-17T22:54:19.116Z,10.09
2023-04-17T22:56:48.325Z,10.12
2023-04-17T22:59:14.869Z,10.14
2023-04-17T23:01:41.392Z,10.16
2023-04-17T23:04:09.216Z,10.16
2023-04-17T23:06:35.596Z,10.10
2023-04-17T23:09:04.788Z,10.10
2023-04-17T23:11:32.518Z,9.91
2023-04-17T23:13:58.982Z,9.87
2023-04-17T23:16:25.604Z,9.83
2023-04-17T23:18:56.668Z,9.78
2023-04-17T23:21:24.359Z,9.89
2023-04-17T23:23:53.865Z,9.86
2023-04-17T23:26:20.232Z,9.96
2023-04-17T23:28:46.989Z,9.86
2023-04-17T23:31:13.486Z,9.88
2023-04-17T23:33:44.493Z,9.85
2023-04-17T23:36:11.393Z,9.88
2023-04-17T23:38:40.458Z,9.87
2023-04-17T23:41:06.942Z,9.75
2023-04-17T23:43:33.349Z,9.77
2023-04-17T23:46:02.344Z,9.78
2023-04-17T23:48:28.783Z,9.79
2023-04-17T23:50:55.719Z,9.80
2023-04-17T23:53:22.431Z,9.71
2023-04-17T23:55:49.000Z,9.76
2023-04-17T23:58:17.558Z,9.73
